sensor_id;sensor_type;location;lat;lon;timestamp;P1;durP1;ratioP1;P2;durP2;ratioP2
12852;SDS011;6495;51.808;7.478;2024-01-15T00:01:41;10.70;;;5.17;;
12852;SDS011;6495;51.808;7.478;2024-01-15T00:04:11;5.33;;;3.57;;
12852;SDS011;6495;51.808;7.478;2024-01-15T00:06:41;8.13;;;4.57;;
12852;SDS011;6495;51.808;7.478;2024-01-15T00:09:09;5.67;;;3.77;;
12852;SDS011;6495;51.808;7.478;2024-01-15T00:11:38;7.40;;;4.00;;
12852;SDS011;6495;51.808;7.478;2024-01-15T00:14:06;5.87;;;3.40;;
12852;SDS011;6495;51.808;7.478;2024-01-15T00:16:34;7.47;;;3.53;;
12852;SDS011;6495;51.808;7.478;2024-01-15T00:19:03;6.10;;;4.00;;
12852;SDS011;6495;51.808;7.478;2024-01-15T00:21:31;7.90;;;3.37;;
12852;SDS011;6495;51.808;7.478;2024-01-15T00:24:01;9.80;;;4.37;;
12852;SDS011;6495;51.808;7.478;2024-01-15T00:26:30;7.50;;;3.77;;
12852;SDS011;6495;51.808;7.478;2024-01-15T00:28:58;9.67;;;4.47;;
12852;SDS011;6495;51.808;7.478;2024-01-15T00:31:27;8.80;;;4.60;;
12852;SDS011;6495;51.808;7.478;2024-01-15T00:33:56;6.03;;;4.10;;
12852;SDS011;6495;51.808;7.478;2024-01-15T00:36:25;7.57;;;3.93;;
12852;SDS011;6495;51.808;7.478;2024-01-15T00:38:54;9.43;;;4.20;;
12852;SDS011;6495;51.808;7.478;2024-01-15T00:41:23;8.30;;;4.57;;
12852;SDS011;6495;51.808;7.478;2024-01-15T00:43:54;10.23;;;4.17;;
12852;SDS011;6495;51.808;7.478;2024-01-15T00:46:22;6.60;;;3.80;;
12852;SDS011;6495;51.808;7.478;2024-01-15T00:48:50;8.73;;;3.70;;
12852;SDS011;6495;51.808;7.478;2024-01-15T00:51:19;9.73;;;3.60;;
12852;SDS011;6495;51.808;7.478;2024-01-15T00:53:47;10.13;;;5.23;;
12852;SDS011;6495;51.808;7.478;2024-01-15T00:56:16;12.07;;;5.13;;
12852;SDS011;6495;51.808;7.478;2024-01-15T00:58:45;11.03;;;4.17;;
12852;SDS011;6495;51.808;7.478;2024-01-15T01:01:14;7.87;;;3.83;;
12852;SDS011;6495;51.808;7.478;2024-01-15T01:03:42;14.07;;;5.17;;
12852;SDS011;6495;51.808;7.478;2024-01-15T01:06:11;7.20;;;4.07;;
12852;SDS011;6495;51.808;7.478;2024-01-15T01:08:39;9.50;;;4.43;;
12852;SDS011;6495;51.808;7.478;2024-01-15T01:11:08;9.23;;;4.57;;
12852;SDS011;6495;51.808;7.478;2024-01-15T01:13:41;10.40;;;5.33;;
12852;SDS011;6495;51.808;7.478;2024-01-15T01:16:10;8.17;;;3.97;;
12852;SDS011;6495;51.808;7.478;2024-01-15T01:18:39;10.13;;;5.93;;
12852;SDS011;6495;51.808;7.478;2024-01-15T01:21:07;5.97;;;3.30;;
12852;SDS011;6495;51.808;7.478;2024-01-15T01:23:36;9.23;;;3.80;;
12852;SDS011;6495;51.808;7.478;2024-01-15T01:26:04;7.60;;;3.83;;
12852;SDS011;6495;51.808;7.478;2024-01-15T01:28:32;5.93;;;3.53;;
12852;SDS011;6495;51.808;7.478;2024-01-15T01:31:01;7.43;;;3.60;;
12852;SDS011;6495;51.808;7.478;2024-01-15T01:33:31;7.60;;;3.70;;
12852;SDS011;6495;51.808;7.478;2024-01-15T01:35:59;6.83;;;3.73;;
12852;SDS011;6495;51.808;7.478;2024-01-15T01:38:27;8.53;;;4.37;;
12852;SDS011;6495;51.808;7.478;2024-01-15T01:40:56;9.90;;;4.40;;
12852;SDS011;6495;51.808;7.478;2024-01-15T01:43:24;11.00;;;4.07;;
12852;SDS011;6495;51.808;7.478;2024-01-15T01:45:52;8.10;;;3.97;;
12852;SDS011;6495;51.808;7.478;2024-01-15T01:48:25;8.67;;;3.67;;
12852;SDS011;6495;51.808;7.478;2024-01-15T01:50:56;8.57;;;4.47;;
12852;SDS011;6495;51.808;7.478;2024-01-15T01:53:27;10.93;;;3.27;;
12852;SDS011;6495;51.808;7.478;2024-01-15T01:55:57;9.93;;;4.03;;
12852;SDS011;6495;51.808;7.478;2024-01-15T01:58:25;6.80;;;4.07;;
12852;SDS011;6495;51.808;7.478;2024-01-15T02:00:55;10.30;;;4.50;;
12852;SDS011;6495;51.808;7.478;2024-01-15T02:03:24;8.07;;;3.70;;
12852;SDS011;6495;51.808;7.478;2024-01-15T02:05:54;5.23;;;3.20;;
12852;SDS011;6495;51.808;7.478;2024-01-15T02:08:24;7.57;;;3.63;;
12852;SDS011;6495;51.808;7.478;2024-01-15T02:10:54;8.07;;;3.60;;
12852;SDS011;6495;51.808;7.478;2024-01-15T02:13:22;10.17;;;3.67;;
12852;SDS011;6495;51.808;7.478;2024-01-15T02:15:51;8.60;;;4.30;;
12852;SDS011;6495;51.808;7.478;2024-01-15T02:18:19;11.07;;;4.43;;
12852;SDS011;6495;51.808;7.478;2024-01-15T02:20:48;7.43;;;4.10;;
12852;SDS011;6495;51.808;7.478;2024-01-15T02:23:17;8.70;;;4.20;;
12852;SDS011;6495;51.808;7.478;2024-01-15T02:25:46;7.87;;;3.50;;
12852;SDS011;6495;51.808;7.478;2024-01-15T02:28:16;6.83;;;4.17;;
12852;SDS011;6495;51.808;7.478;2024-01-15T02:30:45;12.97;;;4.87;;
12852;SDS011;6495;51.808;7.478;2024-01-15T02:33:13;9.77;;;3.27;;
12852;SDS011;6495;51.808;7.478;2024-01-15T02:35:42;9.70;;;4.17;;
12852;SDS011;6495;51.808;7.478;2024-01-15T02:38:12;6.10;;;3.40;;
12852;SDS011;6495;51.808;7.478;2024-01-15T02:40:42;6.90;;;3.60;;
12852;SDS011;6495;51.808;7.478;2024-01-15T02:43:12;7.53;;;4.33;;
12852;SDS011;6495;51.808;7.478;2024-01-15T02:45:40;8.70;;;3.97;;
12852;SDS011;6495;51.808;7.478;2024-01-15T02:48:09;11.90;;;4.53;;
12852;SDS011;6495;51.808;7.478;2024-01-15T02:50:37;6.53;;;3.53;;
12852;SDS011;6495;51.808;7.478;2024-01-15T02:53:05;7.13;;;3.63;;
12852;SDS011;6495;51.808;7.478;2024-01-15T02:55:33;7.67;;;3.40;;
12852;SDS011;6495;51.808;7.478;2024-01-15T02:58:03;7.50;;;3.10;;
12852;SDS011;6495;51.808;7.478;2024-01-15T03:00:31;9.57;;;3.30;;
12852;SDS011;6495;51.808;7.478;2024-01-15T03:03:00;8.63;;;3.83;;
12852;SDS011;6495;51.808;7.478;2024-01-15T03:05:28;6.30;;;3.10;;
12852;SDS011;6495;51.808;7.478;2024-01-15T03:07:57;5.97;;;3.00;;
12852;SDS011;6495;51.808;7.478;2024-01-15T03:10:25;11.43;;;4.03;;
12852;SDS011;6495;51.808;7.478;2024-01-15T03:12:53;5.57;;;3.07;;
12852;SDS011;6495;51.808;7.478;2024-01-15T03:15:23;6.87;;;3.07;;
12852;SDS011;6495;51.808;7.478;2024-01-15T03:17:52;5.73;;;3.03;;
12852;SDS011;6495;51.808;7.478;2024-01-15T03:20:20;5.17;;;2.93;;
12852;SDS011;6495;51.808;7.478;2024-01-15T03:22:48;5.13;;;2.97;;
12852;SDS011;6495;51.808;7.478;2024-01-15T03:25:17;5.33;;;3.03;;
12852;SDS011;6495;51.808;7.478;2024-01-15T03:27:45;6.87;;;3.43;;
12852;SDS011;6495;51.808;7.478;2024-01-15T03:30:14;4.10;;;2.40;;
12852;SDS011;6495;51.808;7.478;2024-01-15T03:32:44;8.30;;;3.50;;
12852;SDS011;6495;51.808;7.478;2024-01-15T03:35:13;6.10;;;3.13;;
12852;SDS011;6495;51.808;7.478;2024-01-15T03:37:42;4.53;;;2.57;;
12852;SDS011;6495;51.808;7.478;2024-01-15T03:40:10;3.90;;;2.83;;
12852;SDS011;6495;51.808;7.478;2024-01-15T03:42:40;8.97;;;3.20;;
12852;SDS011;6495;51.808;7.478;2024-01-15T03:45:08;4.50;;;2.97;;
12852;SDS011;6495;51.808;7.478;2024-01-15T03:47:37;3.30;;;2.27;;
12852;SDS011;6495;51.808;7.478;2024-01-15T03:50:08;5.07;;;2.80;;
12852;SDS011;6495;51.808;7.478;2024-01-15T03:52:37;3.97;;;2.50;;
12852;SDS011;6495;51.808;7.478;2024-01-15T03:55:05;3.93;;;2.73;;
12852;SDS011;6495;51.808;7.478;2024-01-15T03:57:34;5.57;;;2.70;;
12852;SDS011;6495;51.808;7.478;2024-01-15T04:00:03;7.60;;;2.80;;
12852;SDS011;6495;51.808;7.478;2024-01-15T04:02:34;4.57;;;2.43;;
12852;SDS011;6495;51.808;7.478;2024-01-15T04:05:03;3.93;;;2.67;;
12852;SDS011;6495;51.808;7.478;2024-01-15T04:07:33;4.50;;;2.80;;
12852;SDS011;6495;51.808;7.478;2024-01-15T04:10:01;7.87;;;3.23;;
12852;SDS011;6495;51.808;7.478;2024-01-15T04:12:30;5.20;;;2.40;;
12852;SDS011;6495;51.808;7.478;2024-01-15T04:14:58;3.73;;;2.50;;
12852;SDS011;6495;51.808;7.478;2024-01-15T04:17:27;5.93;;;3.07;;
12852;SDS011;6495;51.808;7.478;2024-01-15T04:19:55;5.43;;;2.70;;
12852;SDS011;6495;51.808;7.478;2024-01-15T04:22:24;7.07;;;3.23;;
12852;SDS011;6495;51.808;7.478;2024-01-15T04:24:54;6.07;;;3.50;;
12852;SDS011;6495;51.808;7.478;2024-01-15T04:27:23;5.27;;;2.70;;
12852;SDS011;6495;51.808;7.478;2024-01-15T04:29:51;3.70;;;2.17;;
12852;SDS011;6495;51.808;7.478;2024-01-15T04:32:20;5.73;;;2.63;;
12852;SDS011;6495;51.808;7.478;2024-01-15T04:34:48;2.67;;;1.93;;
12852;SDS011;6495;51.808;7.478;2024-01-15T04:37:17;8.53;;;2.80;;
12852;SDS011;6495;51.808;7.478;2024-01-15T04:39:45;6.50;;;3.83;;
12852;SDS011;6495;51.808;7.478;2024-01-15T04:42:15;12.50;;;2.87;;
12852;SDS011;6495;51.808;7.478;2024-01-15T04:44:44;4.07;;;2.43;;
12852;SDS011;6495;51.808;7.478;2024-01-15T04:47:12;5.07;;;2.50;;
12852;SDS011;6495;51.808;7.478;2024-01-15T04:49:40;6.63;;;2.63;;
12852;SDS011;6495;51.808;7.478;2024-01-15T04:52:09;5.10;;;3.07;;
12852;SDS011;6495;51.808;7.478;2024-01-15T04:54:37;5.63;;;2.43;;
12852;SDS011;6495;51.808;7.478;2024-01-15T04:57:06;3.50;;;2.50;;
12852;SDS011;6495;51.808;7.478;2024-01-15T04:59:35;4.77;;;2.00;;
12852;SDS011;6495;51.808;7.478;2024-01-15T05:02:04;3.53;;;2.10;;
12852;SDS011;6495;51.808;7.478;2024-01-15T05:04:32;2.90;;;1.80;;
12852;SDS011;6495;51.808;7.478;2024-01-15T05:07:01;4.20;;;2.10;;
12852;SDS011;6495;51.808;7.478;2024-01-15T05:09:29;5.00;;;2.37;;
12852;SDS011;6495;51.808;7.478;2024-01-15T05:11:58;5.70;;;2.13;;
12852;SDS011;6495;51.808;7.478;2024-01-15T05:14:27;7.57;;;2.23;;
12852;SDS011;6495;51.808;7.478;2024-01-15T05:16:57;3.17;;;2.33;;
12852;SDS011;6495;51.808;7.478;2024-01-15T05:19:26;5.57;;;2.53;;
12852;SDS011;6495;51.808;7.478;2024-01-15T05:21:54;5.40;;;2.50;;
12852;SDS011;6495;51.808;7.478;2024-01-15T05:24:26;3.87;;;1.97;;
12852;SDS011;6495;51.808;7.478;2024-01-15T05:26:54;5.37;;;2.50;;
12852;SDS011;6495;51.808;7.478;2024-01-15T05:29:22;3.57;;;1.80;;
12852;SDS011;6495;51.808;7.478;2024-01-15T05:31:51;5.50;;;2.67;;
12852;SDS011;6495;51.808;7.478;2024-01-15T05:34:20;4.23;;;2.13;;
12852;SDS011;6495;51.808;7.478;2024-01-15T05:36:49;4.30;;;2.00;;
12852;SDS011;6495;51.808;7.478;2024-01-15T05:39:18;3.83;;;1.73;;
12852;SDS011;6495;51.808;7.478;2024-01-15T05:41:49;2.13;;;1.70;;
12852;SDS011;6495;51.808;7.478;2024-01-15T05:44:17;2.73;;;1.77;;
12852;SDS011;6495;51.808;7.478;2024-01-15T05:46:46;4.37;;;2.20;;
12852;SDS011;6495;51.808;7.478;2024-01-15T05:49:14;3.90;;;1.97;;
12852;SDS011;6495;51.808;7.478;2024-01-15T05:51:44;5.60;;;1.70;;
12852;SDS011;6495;51.808;7.478;2024-01-15T05:54:12;6.67;;;2.17;;
12852;SDS011;6495;51.808;7.478;2024-01-15T05:56:40;4.07;;;2.17;;
12852;SDS011;6495;51.808;7.478;2024-01-15T05:59:09;5.90;;;1.80;;
12852;SDS011;6495;51.808;7.478;2024-01-15T06:01:41;2.67;;;1.80;;
12852;SDS011;6495;51.808;7.478;2024-01-15T06:04:09;5.40;;;1.90;;
12852;SDS011;6495;51.808;7.478;2024-01-15T06:06:38;3.53;;;1.97;;
12852;SDS011;6495;51.808;7.478;2024-01-15T06:09:08;5.23;;;1.90;;
12852;SDS011;6495;51.808;7.478;2024-01-15T06:11:36;3.30;;;1.53;;
12852;SDS011;6495;51.808;7.478;2024-01-15T06:14:04;3.90;;;1.43;;
12852;SDS011;6495;51.808;7.478;2024-01-15T06:16:33;1.40;;;1.27;;
12852;SDS011;6495;51.808;7.478;2024-01-15T06:19:01;3.47;;;1.80;;
12852;SDS011;6495;51.808;7.478;2024-01-15T06:21:30;6.67;;;1.83;;
12852;SDS011;6495;51.808;7.478;2024-01-15T06:23:58;3.20;;;2.30;;
12852;SDS011;6495;51.808;7.478;2024-01-15T06:26:28;2.50;;;1.90;;
12852;SDS011;6495;51.808;7.478;2024-01-15T06:28:56;3.17;;;1.90;;
12852;SDS011;6495;51.808;7.478;2024-01-15T06:31:25;3.10;;;1.73;;
12852;SDS011;6495;51.808;7.478;2024-01-15T06:33:53;5.63;;;1.70;;
12852;SDS011;6495;51.808;7.478;2024-01-15T06:36:23;2.60;;;1.97;;
12852;SDS011;6495;51.808;7.478;2024-01-15T06:38:51;2.17;;;1.57;;
12852;SDS011;6495;51.808;7.478;2024-01-15T06:41:19;4.20;;;2.50;;
12852;SDS011;6495;51.808;7.478;2024-01-15T06:43:49;3.97;;;2.17;;
12852;SDS011;6495;51.808;7.478;2024-01-15T06:46:19;4.97;;;2.20;;
12852;SDS011;6495;51.808;7.478;2024-01-15T06:48:48;5.37;;;2.30;;
12852;SDS011;6495;51.808;7.478;2024-01-15T06:51:17;4.20;;;2.63;;
12852;SDS011;6495;51.808;7.478;2024-01-15T06:53:45;4.13;;;1.90;;
12852;SDS011;6495;51.808;7.478;2024-01-15T06:56:14;5.13;;;2.37;;
12852;SDS011;6495;51.808;7.478;2024-01-15T06:58:42;2.97;;;1.97;;
12852;SDS011;6495;51.808;7.478;2024-01-15T07:01:12;3.00;;;1.70;;
12852;SDS011;6495;51.808;7.478;2024-01-15T07:03:40;1.73;;;1.63;;
12852;SDS011;6495;51.808;7.478;2024-01-15T07:06:09;2.60;;;1.70;;
12852;SDS011;6495;51.808;7.478;2024-01-15T07:08:39;3.67;;;1.87;;
12852;SDS011;6495;51.808;7.478;2024-01-15T07:11:08;2.93;;;1.80;;
12852;SDS011;6495;51.808;7.478;2024-01-15T07:13:36;3.87;;;1.77;;
12852;SDS011;6495;51.808;7.478;2024-01-15T07:16:06;3.60;;;1.80;;
12852;SDS011;6495;51.808;7.478;2024-01-15T07:18:36;5.30;;;2.33;;
12852;SDS011;6495;51.808;7.478;2024-01-15T07:21:04;2.73;;;2.00;;
12852;SDS011;6495;51.808;7.478;2024-01-15T07:23:33;3.17;;;1.90;;
12852;SDS011;6495;51.808;7.478;2024-01-15T07:26:01;6.27;;;1.90;;
12852;SDS011;6495;51.808;7.478;2024-01-15T07:28:30;3.37;;;1.87;;
12852;SDS011;6495;51.808;7.478;2024-01-15T07:30:58;3.50;;;1.47;;
12852;SDS011;6495;51.808;7.478;2024-01-15T07:33:29;1.90;;;1.57;;
12852;SDS011;6495;51.808;7.478;2024-01-15T07:35:59;3.20;;;1.63;;
12852;SDS011;6495;51.808;7.478;2024-01-15T07:38:29;3.80;;;1.50;;
12852;SDS011;6495;51.808;7.478;2024-01-15T07:40:57;2.10;;;1.50;;
12852;SDS011;6495;51.808;7.478;2024-01-15T07:43:26;3.57;;;1.67;;
12852;SDS011;6495;51.808;7.478;2024-01-15T07:45:54;1.63;;;1.50;;
12852;SDS011;6495;51.808;7.478;2024-01-15T07:48:23;3.17;;;1.47;;
12852;SDS011;6495;51.808;7.478;2024-01-15T07:50:52;6.03;;;1.60;;
12852;SDS011;6495;51.808;7.478;2024-01-15T07:53:22;1.63;;;1.40;;
12852;SDS011;6495;51.808;7.478;2024-01-15T07:55:50;3.40;;;1.80;;
12852;SDS011;6495;51.808;7.478;2024-01-15T07:58:18;2.63;;;1.97;;
12852;SDS011;6495;51.808;7.478;2024-01-15T08:00:47;1.63;;;1.53;;
12852;SDS011;6495;51.808;7.478;2024-01-15T08:03:15;6.03;;;1.80;;
12852;SDS011;6495;51.808;7.478;2024-01-15T08:05:43;3.57;;;1.53;;
12852;SDS011;6495;51.808;7.478;2024-01-15T08:08:13;2.43;;;1.60;;
12852;SDS011;6495;51.808;7.478;2024-01-15T08:10:43;1.47;;;1.23;;
12852;SDS011;6495;51.808;7.478;2024-01-15T08:13:11;1.70;;;1.20;;
12852;SDS011;6495;51.808;7.478;2024-01-15T08:15:40;2.40;;;1.30;;
12852;SDS011;6495;51.808;7.478;2024-01-15T08:18:09;1.37;;;1.27;;
12852;SDS011;6495;51.808;7.478;2024-01-15T08:20:37;1.27;;;1.17;;
12852;SDS011;6495;51.808;7.478;2024-01-15T08:23:06;1.17;;;1.10;;
12852;SDS011;6495;51.808;7.478;2024-01-15T08:25:34;1.37;;;1.07;;
12852;SDS011;6495;51.808;7.478;2024-01-15T08:28:04;2.00;;;1.27;;
12852;SDS011;6495;51.808;7.478;2024-01-15T08:30:32;1.30;;;1.20;;
12852;SDS011;6495;51.808;7.478;2024-01-15T08:33:01;4.30;;;1.70;;
12852;SDS011;6495;51.808;7.478;2024-01-15T08:35:39;3.53;;;1.40;;
12852;SDS011;6495;51.808;7.478;2024-01-15T08:38:08;1.90;;;1.30;;
12852;SDS011;6495;51.808;7.478;2024-01-15T08:40:36;0.90;;;0.90;;
12852;SDS011;6495;51.808;7.478;2024-01-15T08:43:06;0.80;;;0.80;;
12852;SDS011;6495;51.808;7.478;2024-01-15T08:45:34;4.67;;;1.90;;
12852;SDS011;6495;51.808;7.478;2024-01-15T08:48:02;1.57;;;1.00;;
12852;SDS011;6495;51.808;7.478;2024-01-15T08:50:32;2.10;;;1.33;;
12852;SDS011;6495;51.808;7.478;2024-01-15T08:53:00;1.57;;;1.00;;
12852;SDS011;6495;51.808;7.478;2024-01-15T08:55:29;1.43;;;1.17;;
12852;SDS011;6495;51.808;7.478;2024-01-15T08:57:57;1.50;;;1.40;;
12852;SDS011;6495;51.808;7.478;2024-01-15T09:00:27;1.17;;;1.07;;
12852;SDS011;6495;51.808;7.478;2024-01-15T09:02:58;1.60;;;1.30;;
12852;SDS011;6495;51.808;7.478;2024-01-15T09:05:27;1.07;;;1.00;;
12852;SDS011;6495;51.808;7.478;2024-01-15T09:07:56;3.07;;;1.00;;
12852;SDS011;6495;51.808;7.478;2024-01-15T09:10:25;1.27;;;1.17;;
12852;SDS011;6495;51.808;7.478;2024-01-15T09:12:53;2.80;;;1.27;;
12852;SDS011;6495;51.808;7.478;2024-01-15T09:15:23;3.10;;;1.40;;
12852;SDS011;6495;51.808;7.478;2024-01-15T09:17:52;1.37;;;1.00;;
12852;SDS011;6495;51.808;7.478;2024-01-15T09:20:21;2.10;;;1.50;;
12852;SDS011;6495;51.808;7.478;2024-01-15T09:22:50;2.00;;;1.60;;
12852;SDS011;6495;51.808;7.478;2024-01-15T09:25:18;1.43;;;1.30;;
12852;SDS011;6495;51.808;7.478;2024-01-15T09:27:47;1.90;;;1.17;;
12852;SDS011;6495;51.808;7.478;2024-01-15T09:30:15;1.97;;;1.47;;
12852;SDS011;6495;51.808;7.478;2024-01-15T09:32:44;1.40;;;1.30;;
12852;SDS011;6495;51.808;7.478;2024-01-15T09:35:14;1.57;;;1.40;;
12852;SDS011;6495;51.808;7.478;2024-01-15T09:37:43;1.70;;;1.43;;
12852;SDS011;6495;51.808;7.478;2024-01-15T09:40:14;1.60;;;1.33;;
12852;SDS011;6495;51.808;7.478;2024-01-15T09:42:43;1.97;;;1.33;;
12852;SDS011;6495;51.808;7.478;2024-01-15T09:45:14;3.60;;;1.10;;
12852;SDS011;6495;51.808;7.478;2024-01-15T09:47:43;1.97;;;1.73;;
12852;SDS011;6495;51.808;7.478;2024-01-15T09:50:12;2.10;;;1.30;;
12852;SDS011;6495;51.808;7.478;2024-01-15T09:52:43;1.20;;;1.00;;
12852;SDS011;6495;51.808;7.478;2024-01-15T09:55:12;1.40;;;1.20;;
12852;SDS011;6495;51.808;7.478;2024-01-15T09:57:43;1.13;;;1.00;;
12852;SDS011;6495;51.808;7.478;2024-01-15T10:00:13;1.20;;;1.00;;
12852;SDS011;6495;51.808;7.478;2024-01-15T10:02:45;1.23;;;1.13;;
12852;SDS011;6495;51.808;7.478;2024-01-15T10:05:15;1.57;;;1.03;;
12852;SDS011;6495;51.808;7.478;2024-01-15T10:08:15;1.10;;;0.83;;
12852;SDS011;6495;51.808;7.478;2024-01-15T10:10:43;4.10;;;1.20;;
12852;SDS011;6495;51.808;7.478;2024-01-15T10:13:12;2.23;;;1.17;;
12852;SDS011;6495;51.808;7.478;2024-01-15T10:15:45;0.90;;;0.90;;
12852;SDS011;6495;51.808;7.478;2024-01-15T10:18:14;2.50;;;1.10;;
12852;SDS011;6495;51.808;7.478;2024-01-15T10:20:44;1.10;;;0.80;;
12852;SDS011;6495;51.808;7.478;2024-01-15T10:23:14;1.57;;;0.70;;
12852;SDS011;6495;51.808;7.478;2024-01-15T10:25:43;1.23;;;1.00;;
12852;SDS011;6495;51.808;7.478;2024-01-15T10:28:13;0.80;;;0.80;;
12852;SDS011;6495;51.808;7.478;2024-01-15T10:30:41;1.17;;;0.87;;
12852;SDS011;6495;51.808;7.478;2024-01-15T10:33:10;0.83;;;0.67;;
12852;SDS011;6495;51.808;7.478;2024-01-15T10:35:39;1.60;;;0.97;;
12852;SDS011;6495;51.808;7.478;2024-01-15T10:38:10;1.20;;;0.83;;
12852;SDS011;6495;51.808;7.478;2024-01-15T10:40:39;1.00;;;0.90;;
12852;SDS011;6495;51.808;7.478;2024-01-15T10:43:09;0.93;;;0.80;;
12852;SDS011;6495;51.808;7.478;2024-01-15T10:45:37;0.73;;;0.73;;
12852;SDS011;6495;51.808;7.478;2024-01-15T10:48:06;0.90;;;0.63;;
12852;SDS011;6495;51.808;7.478;2024-01-15T10:50:35;2.43;;;0.97;;
12852;SDS011;6495;51.808;7.478;2024-01-15T10:53:04;1.30;;;1.03;;
12852;SDS011;6495;51.808;7.478;2024-01-15T10:55:35;0.80;;;0.80;;
12852;SDS011;6495;51.808;7.478;2024-01-15T10:58:05;0.80;;;0.80;;
12852;SDS011;6495;51.808;7.478;2024-01-15T11:00:37;2.10;;;1.20;;
12852;SDS011;6495;51.808;7.478;2024-01-15T11:03:06;0.70;;;0.60;;
12852;SDS011;6495;51.808;7.478;2024-01-15T11:05:36;1.67;;;0.53;;
12852;SDS011;6495;51.808;7.478;2024-01-15T11:08:06;2.40;;;1.40;;
12852;SDS011;6495;51.808;7.478;2024-01-15T11:10:39;3.30;;;1.00;;
12852;SDS011;6495;51.808;7.478;2024-01-15T11:13:15;1.07;;;0.90;;
12852;SDS011;6495;51.808;7.478;2024-01-15T11:15:56;1.03;;;0.80;;
12852;SDS011;6495;51.808;7.478;2024-01-15T11:18:30;0.70;;;0.70;;
12852;SDS011;6495;51.808;7.478;2024-01-15T11:23:52;0.47;;;0.47;;
12852;SDS011;6495;51.808;7.478;2024-01-15T11:26:29;0.53;;;0.53;;
12852;SDS011;6495;51.808;7.478;2024-01-15T11:29:05;1.63;;;0.73;;
12852;SDS011;6495;51.808;7.478;2024-01-15T11:37:29;1.77;;;1.03;;
12852;SDS011;6495;51.808;7.478;2024-01-15T11:40:37;2.97;;;1.23;;
12852;SDS011;6495;51.808;7.478;2024-01-15T11:43:10;2.07;;;1.27;;
12852;SDS011;6495;51.808;7.478;2024-01-15T11:45:43;1.53;;;1.40;;
12852;SDS011;6495;51.808;7.478;2024-01-15T11:48:14;1.53;;;1.20;;
12852;SDS011;6495;51.808;7.478;2024-01-15T11:50:45;1.77;;;1.00;;
12852;SDS011;6495;51.808;7.478;2024-01-15T11:53:17;1.70;;;1.00;;
12852;SDS011;6495;51.808;7.478;2024-01-15T11:55:57;2.67;;;0.90;;
12852;SDS011;6495;51.808;7.478;2024-01-15T11:58:30;1.00;;;0.90;;
12852;SDS011;6495;51.808;7.478;2024-01-15T12:01:18;2.63;;;0.90;;
12852;SDS011;6495;51.808;7.478;2024-01-15T12:03:47;1.87;;;1.37;;
12852;SDS011;6495;51.808;7.478;2024-01-15T12:06:20;1.63;;;1.17;;
12852;SDS011;6495;51.808;7.478;2024-01-15T12:08:50;0.83;;;0.83;;
12852;SDS011;6495;51.808;7.478;2024-01-15T12:11:23;1.87;;;1.30;;
12852;SDS011;6495;51.808;7.478;2024-01-15T12:13:57;1.87;;;0.90;;
12852;SDS011;6495;51.808;7.478;2024-01-15T12:16:27;1.67;;;1.13;;
12852;SDS011;6495;51.808;7.478;2024-01-15T12:19:00;1.30;;;1.00;;
12852;SDS011;6495;51.808;7.478;2024-01-15T12:21:33;1.40;;;0.90;;
12852;SDS011;6495;51.808;7.478;2024-01-15T12:24:11;2.27;;;1.03;;
12852;SDS011;6495;51.808;7.478;2024-01-15T12:26:52;0.60;;;0.50;;
12852;SDS011;6495;51.808;7.478;2024-01-15T12:29:32;4.47;;;0.57;;
12852;SDS011;6495;51.808;7.478;2024-01-15T12:32:08;0.60;;;0.60;;
12852;SDS011;6495;51.808;7.478;2024-01-15T12:34:38;0.50;;;0.50;;
12852;SDS011;6495;51.808;7.478;2024-01-15T12:37:11;2.80;;;1.00;;
12852;SDS011;6495;51.808;7.478;2024-01-15T12:39:44;0.67;;;0.67;;
12852;SDS011;6495;51.808;7.478;2024-01-15T12:42:13;7.23;;;1.10;;
12852;SDS011;6495;51.808;7.478;2024-01-15T12:44:46;2.13;;;1.10;;
12852;SDS011;6495;51.808;7.478;2024-01-15T12:47:20;1.10;;;0.80;;
12852;SDS011;6495;51.808;7.478;2024-01-15T12:49:51;1.17;;;0.70;;
12852;SDS011;6495;51.808;7.478;2024-01-15T12:52:45;2.73;;;1.00;;
12852;SDS011;6495;51.808;7.478;2024-01-15T12:55:27;1.47;;;0.93;;
12852;SDS011;6495;51.808;7.478;2024-01-15T12:57:58;3.80;;;0.90;;
12852;SDS011;6495;51.808;7.478;2024-01-15T13:00:29;0.90;;;0.90;;
12852;SDS011;6495;51.808;7.478;2024-01-15T13:03:08;2.03;;;1.37;;
12852;SDS011;6495;51.808;7.478;2024-01-15T13:05:47;1.13;;;1.03;;
12852;SDS011;6495;51.808;7.478;2024-01-15T13:08:20;1.20;;;1.10;;
12852;SDS011;6495;51.808;7.478;2024-01-15T13:10:53;2.67;;;1.43;;
12852;SDS011;6495;51.808;7.478;2024-01-15T13:13:26;2.23;;;1.40;;
12852;SDS011;6495;51.808;7.478;2024-01-15T13:16:02;1.50;;;1.40;;
12852;SDS011;6495;51.808;7.478;2024-01-15T13:18:34;0.87;;;0.87;;
12852;SDS011;6495;51.808;7.478;2024-01-15T13:21:11;3.73;;;1.50;;
12852;SDS011;6495;51.808;7.478;2024-01-15T13:23:40;1.30;;;1.13;;
12852;SDS011;6495;51.808;7.478;2024-01-15T13:26:11;2.70;;;1.23;;
12852;SDS011;6495;51.808;7.478;2024-01-15T13:28:45;1.07;;;1.00;;
12852;SDS011;6495;51.808;7.478;2024-01-15T13:31:20;0.73;;;0.73;;
12852;SDS011;6495;51.808;7.478;2024-01-15T13:33:49;1.53;;;1.20;;
12852;SDS011;6495;51.808;7.478;2024-01-15T13:36:26;0.97;;;0.70;;
12852;SDS011;6495;51.808;7.478;2024-01-15T13:38:55;1.13;;;0.90;;
12852;SDS011;6495;51.808;7.478;2024-01-15T13:41:30;3.50;;;1.13;;
12852;SDS011;6495;51.808;7.478;2024-01-15T13:44:06;1.27;;;0.87;;
12852;SDS011;6495;51.808;7.478;2024-01-15T13:46:42;3.27;;;1.70;;
12852;SDS011;6495;51.808;7.478;2024-01-15T13:49:14;1.77;;;1.10;;
12852;SDS011;6495;51.808;7.478;2024-01-15T13:51:44;1.43;;;1.10;;
12852;SDS011;6495;51.808;7.478;2024-01-15T13:54:17;4.23;;;1.27;;
12852;SDS011;6495;51.808;7.478;2024-01-15T13:56:55;0.80;;;0.70;;
12852;SDS011;6495;51.808;7.478;2024-01-15T13:59:25;3.10;;;0.87;;
12852;SDS011;6495;51.808;7.478;2024-01-15T14:01:55;2.30;;;0.90;;
12852;SDS011;6495;51.808;7.478;2024-01-15T14:04:24;2.13;;;0.87;;
12852;SDS011;6495;51.808;7.478;2024-01-15T14:06:55;1.90;;;1.00;;
12852;SDS011;6495;51.808;7.478;2024-01-15T14:09:24;0.70;;;0.70;;
12852;SDS011;6495;51.808;7.478;2024-01-15T14:11:53;2.07;;;1.10;;
12852;SDS011;6495;51.808;7.478;2024-01-15T14:14:24;3.47;;;1.30;;
12852;SDS011;6495;51.808;7.478;2024-01-15T14:16:53;0.67;;;0.67;;
12852;SDS011;6495;51.808;7.478;2024-01-15T14:19:27;1.27;;;0.93;;
12852;SDS011;6495;51.808;7.478;2024-01-15T14:21:59;2.50;;;1.13;;
12852;SDS011;6495;51.808;7.478;2024-01-15T14:24:28;2.10;;;0.70;;
12852;SDS011;6495;51.808;7.478;2024-01-15T14:26:57;1.37;;;0.70;;
12852;SDS011;6495;51.808;7.478;2024-01-15T14:29:30;1.03;;;0.80;;
12852;SDS011;6495;51.808;7.478;2024-01-15T14:31:58;0.77;;;0.77;;
12852;SDS011;6495;51.808;7.478;2024-01-15T14:34:29;1.20;;;0.70;;
12852;SDS011;6495;51.808;7.478;2024-01-15T14:36:58;3.10;;;0.80;;
12852;SDS011;6495;51.808;7.478;2024-01-15T14:39:29;1.43;;;0.77;;
12852;SDS011;6495;51.808;7.478;2024-01-15T14:42:00;2.53;;;1.00;;
12852;SDS011;6495;51.808;7.478;2024-01-15T14:44:29;1.57;;;0.80;;
12852;SDS011;6495;51.808;7.478;2024-01-15T14:47:01;1.60;;;0.67;;
12852;SDS011;6495;51.808;7.478;2024-01-15T14:49:35;1.50;;;1.03;;
12852;SDS011;6495;51.808;7.478;2024-01-15T14:52:08;0.60;;;0.60;;
12852;SDS011;6495;51.808;7.478;2024-01-15T14:54:37;1.00;;;0.80;;
12852;SDS011;6495;51.808;7.478;2024-01-15T14:57:05;0.77;;;0.70;;
12852;SDS011;6495;51.808;7.478;2024-01-15T14:59:34;2.30;;;1.10;;
12852;SDS011;6495;51.808;7.478;2024-01-15T15:02:02;4.17;;;0.83;;
12852;SDS011;6495;51.808;7.478;2024-01-15T15:04:31;0.90;;;0.73;;
12852;SDS011;6495;51.808;7.478;2024-01-15T15:07:00;2.40;;;0.70;;
12852;SDS011;6495;51.808;7.478;2024-01-15T15:09:29;0.63;;;0.60;;
12852;SDS011;6495;51.808;7.478;2024-01-15T15:11:58;4.13;;;0.90;;
12852;SDS011;6495;51.808;7.478;2024-01-15T15:14:26;1.50;;;0.90;;
12852;SDS011;6495;51.808;7.478;2024-01-15T15:16:54;2.10;;;0.90;;
12852;SDS011;6495;51.808;7.478;2024-01-15T15:19:22;1.63;;;0.47;;
12852;SDS011;6495;51.808;7.478;2024-01-15T15:21:51;2.23;;;0.50;;
12852;SDS011;6495;51.808;7.478;2024-01-15T15:24:21;1.07;;;0.57;;
12852;SDS011;6495;51.808;7.478;2024-01-15T15:26:49;1.00;;;0.70;;